Latest Weather Observations for Innisfail Aero

IDQ60801

Issued at 4:32 am EST Friday 24 November 2017 (issued every 30 minutes, with the page automatically refreshed every 10 minutes)

About weather observations | Map of weather stations | Latest weather observations for QLD | Other Formats
Station Details ID: 032197 Name: INNISFAIL AERODROME Lat: -17.56 Lon: 146.01 Height: 11.84 m
Data from the previous 72 hours. | See also: Recent months for locations in Queensland
Date/Time
EST
Temp
°C
App
Temp
°C
Dew
Point
°C
Rel
Hum
%
Delta-T
°C
Wind Press
QNH
hPa
Press
MSL
hPa
Rain since
9am
mm
Dir  Spd
km/h
Gust
km/h
Spd
kts
Gust
kts
24/04:30am 22.8 25.7 22.5 98 0.2 SW 11 13 6 7 1010.7 1010.7 0.4
24/04:24am 22.7 25.9 22.4 98 0.2 SW 9 11 5 6 1010.6 1010.6 0.4
24/04:00am 22.6 26.2 22.4 99 0.1 WSW 7 9 4 5 1010.5 1010.5 0.4
24/03:30am 22.6 26.2 22.4 99 0.1 WNW 7 11 4 6 1010.3 1010.3 0.4
24/03:00am 22.5 26.2 22.3 99 0.1 N 6 7 3 4 1010.0 1010.0 0.4
24/02:59am 22.5 26.2 22.3 99 0.1 N 6 9 3 5 1010.0 1010.0 0.4
24/02:30am 22.7 26.6 22.5 99 0.1 WSW 6 7 3 4 1010.1 1010.1 0.4
24/02:03am 22.7 27.7 22.5 99 0.1 CALM 0 0 0 0 1010.4 1010.4 0.4
24/02:00am 22.7 27.7 22.5 99 0.1 CALM 0 0 0 0 1010.4 1010.4 0.4
24/01:30am 22.4 27.2 22.1 98 0.2 CALM 0 0 0 0 1010.8 1010.8 0.4
24/01:00am 22.6 26.2 22.3 98 0.2 WNW 7 9 4 5 1010.8 1010.8 0.4
24/12:30am 22.7 26.4 22.2 97 0.3 NNW 6 9 3 5 1010.9 1010.9 0.4
24/12:00am 22.8 26.4 22.0 95 0.5 SSW 6 11 3 6 1011.1 1011.1 0.4
 
Date/Time
EST
Temp
°C
App
Temp
°C
Dew
Point
°C
Rel
Hum
%
Delta-T
°C
Wind Press
QNH
hPa
Press
MSL
hPa
Rain since
9am
mm
Dir  Spd
km/h
Gust
km/h
Spd
kts
Gust
kts
23/11:30pm 23.3 27.2 22.5 95 0.5 WSW 6 9 3 5 1011.4 1011.4 0.4
23/11:00pm 23.5 27.6 22.3 93 0.8 WNW 4 9 2 5 1011.5 1011.5 0.0
23/10:30pm 23.5 27.2 22.3 93 0.8 SW 6 9 3 5 1011.3 1011.3 0.0
23/10:00pm 23.6 26.7 22.2 92 0.9 W 9 11 5 6 1011.0 1011.0 0.0
23/09:30pm 23.8 26.9 22.2 91 1.1 SW 9 11 5 6 1010.8 1010.8 0.0
23/09:00pm 24.0 27.1 22.1 89 1.3 S 9 11 5 6 1010.5 1010.5 0.0
23/08:30pm 23.5 26.4 21.8 90 1.1 SW 9 9 5 5 1010.6 1010.6 0.0
23/08:00pm 24.1 27.0 21.8 87 1.5 SW 9 9 5 5 1010.4 1010.4 0.0
23/07:30pm 24.1 27.1 22.0 88 1.4 SW 9 11 5 6 1010.5 1010.5 0.0
23/07:00pm 24.5 27.4 21.8 85 1.8 S 9 11 5 6 1009.9 1009.9 0.0
23/06:30pm 25.1 27.3 21.8 82 2.2 SSE 13 17 7 9 1009.6 1009.6 0.0
23/06:00pm 25.6 27.7 21.7 79 2.6 SE 13 19 7 10 1009.4 1009.4 0.0
23/05:30pm 26.0 27.6 21.4 76 3.1 SE 15 20 8 11 1009.0 1008.9 0.0
23/05:00pm 26.4 26.9 21.2 73 3.4 SE 20 26 11 14 1008.7 1008.6 0.0
23/04:30pm 26.7 27.1 21.0 71 3.8 SE 20 26 11 14 1008.5 1008.4 0.0
23/04:00pm 26.4 26.9 21.2 73 3.4 ESE 20 26 11 14 1008.5 1008.4 0.0
23/03:30pm 27.0 28.0 21.1 70 3.9 SE 17 24 9 13 1008.7 1008.6 0.0
23/03:00pm 28.2 28.5 20.7 63 5.0 ESE 20 30 11 16 1008.6 1008.5 0.0
23/02:30pm 28.7 29.0 20.7 62 5.3 SE 20 30 11 16 1008.6 1008.5 0.0
23/02:00pm 28.9 30.5 21.4 64 5.0 E 15 22 8 12 1008.7 1008.6 0.0
23/01:30pm 28.7 29.5 20.7 62 5.3 SE 17 26 9 14 1009.2 1009.2 0.0
23/01:00pm 28.0 28.9 20.8 65 4.8 SE 17 22 9 12 1009.3 1009.3 0.0
23/12:30pm 28.4 29.7 21.7 67 4.5 SE 17 26 9 14 1009.7 1009.7 0.0
23/12:00pm 28.7 30.4 21.0 63 5.1 ESE 13 22 7 12 1010.0 1010.0 0.0
23/11:30am 27.6 28.4 19.9 63 5.0 SE 15 20 8 11 1010.4 1010.4 0.0
23/11:00am 28.7 30.0 22.7 70 4.1 SE 20 28 11 15 1010.7 1010.7 0.0
23/10:30am 26.6 27.4 20.7 70 3.9 SE 17 24 9 13 1010.9 1010.9 0.0
23/10:00am 27.2 28.1 20.8 68 4.2 SE 17 22 9 12 1011.0 1011.0 0.0
23/09:47am 26.7 28.5 21.2 72 3.6 SE 13 24 7 13 1011.0 1011.0 0.0
23/09:31am 26.4 27.7 20.9 72 3.6 S 15 20 8 11 1011.2 1011.2 0.0
23/09:30am 26.6 28.5 21.4 73 3.5 S 13 20 7 11 1011.2 1011.2 0.0
23/09:00am 26.4 27.9 22.0 77 2.9 SSE 17 20 9 11 1011.4 1011.4 0.4
23/08:30am 25.0 25.5 20.9 78 2.7 SSE 19 24 10 13 1011.0 1011.0 0.4
23/08:00am 24.6 26.1 21.3 82 2.2 S 15 19 8 10 1010.7 1010.7 0.4
23/07:30am 23.9 25.7 21.2 85 1.8 SSE 13 19 7 10 1010.6 1010.6 0.4
23/07:00am 22.7 25.2 21.0 90 1.1 SE 9 11 5 6 1010.8 1010.8 0.4
23/06:30am 22.2 25.6 21.7 97 0.3 SSW 6 7 3 4 1010.5 1010.5 0.4
23/06:00am 21.5 24.5 21.3 99 0.1 SW 7 9 4 5 1010.0 1010.0 0.4
23/05:30am 21.4 24.5 21.1 98 0.2 SW 6 9 3 5 1009.3 1009.3 0.4
23/05:00am 21.2 25.4 20.9 98 0.2 CALM 0 0 0 0 1009.0 1008.9 0.4
23/04:30am 21.3 24.7 21.0 98 0.2 WNW 4 6 2 3 1008.9 1008.8 0.4
23/04:00am 21.3 24.2 21.1 99 0.1 SW 7 9 4 5 1008.7 1008.6 0.4
23/03:30am 21.0 23.4 20.8 99 0.1 SSW 9 11 5 6 1008.5 1008.4 0.4
23/03:00am 20.4 23.8 20.1 98 0.2 NNW 2 7 1 4 1008.5 1008.4 0.4
23/02:30am 20.8 23.4 20.5 98 0.2 WNW 7 9 4 5 1008.1 1008.0 0.4
23/02:00am 21.1 23.5 20.8 98 0.2 W 9 11 5 6 1008.3 1008.2 0.4
23/01:30am 20.9 24.9 20.6 98 0.2 CALM 0 0 0 0 1008.8 1008.7 0.4
23/01:00am 21.2 25.3 20.7 97 0.3 CALM 0 0 0 0 1008.9 1008.8 0.4
23/12:30am 21.5 24.0 21.0 97 0.3 W 9 11 5 6 1009.0 1008.9 0.4
23/12:00am 21.8 24.3 21.1 96 0.5 SW 9 13 5 7 1009.4 1009.4 0.4
 
Date/Time
EST
Temp
°C
App
Temp
°C
Dew
Point
°C
Rel
Hum
%
Delta-T
°C
Wind Press
QNH
hPa
Press
MSL
hPa
Rain since
9am
mm
Dir  Spd
km/h
Gust
km/h
Spd
kts
Gust
kts
22/11:30pm 21.9 24.5 21.2 96 0.5 SW 9 13 5 7 1009.8 1009.8 0.4
22/11:00pm 22.2 24.5 21.4 95 0.5 WSW 11 13 6 7 1010.0 1010.0 0.4
22/10:30pm 22.3 25.1 21.5 95 0.5 SW 9 11 5 6 1009.7 1009.7 0.4
22/10:00pm 22.3 24.8 21.8 97 0.3 SW 11 13 6 7 1009.9 1009.9 0.4
22/09:30pm 22.3 25.1 21.6 96 0.5 SSW 9 11 5 6 1009.6 1009.6 0.4
22/09:00pm 22.6 25.5 21.8 95 0.5 S 9 11 5 6 1009.7 1009.7 0.4
22/08:30pm 22.8 26.3 22.1 96 0.5 SSE 7 11 4 6 1009.7 1009.7 0.4
22/08:00pm 22.7 25.7 21.9 95 0.5 S 9 13 5 7 1009.6 1009.6 0.4
22/07:30pm 22.9 25.5 21.9 94 0.7 SSE 11 13 6 7 1009.2 1009.2 0.4
22/07:09pm 22.8 25.4 22.0 95 0.5 SSE 11 15 6 8 1009.3 1009.3 0.4
22/07:00pm 22.8 25.3 21.8 94 0.7 SE 11 17 6 9 1009.1 1009.1 0.4
22/06:48pm 22.7 24.8 21.7 94 0.7 SSE 13 19 7 10 1008.9 1008.8 0.2
22/06:30pm 22.8 24.7 21.4 92 0.9 SSE 13 17 7 9 1008.7 1008.6 0.2
22/06:28pm 23.0 25.0 21.6 92 0.9 SSE 13 17 7 9 1008.7 1008.6 0.2
22/06:10pm 23.7 25.2 21.2 86 1.6 ESE 15 22 8 12 1008.4 1008.3 0.2
22/06:00pm 24.0 25.5 21.3 85 1.8 ESE 15 20 8 11 1008.4 1008.3 0.2
22/05:43pm 24.1 25.2 21.2 84 1.9 SE 17 20 9 11 1008.1 1008.0 0.2
22/05:30pm 24.3 26.0 21.6 85 1.8 ESE 15 20 8 11 1008.2 1008.1 0.2
22/05:00pm 24.7 25.9 21.4 82 2.2 ESE 17 24 9 13 1007.7 1007.6 0.2
22/04:30pm 25.6 26.3 21.5 78 2.7 SE 20 26 11 14 1007.4 1007.3 0.2
22/04:23pm 25.7 26.1 21.8 79 2.6 SSE 22 30 12 16 1007.5 1007.4 0.2
22/04:00pm 25.4 25.6 21.3 78 2.7 SE 22 30 12 16 1007.7 1007.6 0.2
22/03:30pm 25.7 26.5 20.7 74 3.3 E 17 24 9 13 1007.8 1007.7 0.2
22/03:00pm 26.0 26.9 20.8 73 3.4 E 17 22 9 12 1007.9 1007.8 0.2
22/02:30pm 26.2 27.3 21.2 74 3.3 ESE 17 20 9 11 1008.1 1008.0 0.2
22/02:00pm 26.3 27.4 21.3 74 3.3 ESE 17 22 9 12 1008.3 1008.2 0.2
22/01:46pm 26.5 27.7 21.5 74 3.3 ESE 17 24 9 13 1008.4 1008.3 0.2
22/01:30pm 26.5 27.4 21.9 76 3.1 SE 20 24 11 13 1008.5 1008.4 0.2
22/01:23pm 26.8 27.5 21.6 73 3.5 SE 20 24 11 13 1008.7 1008.6 0.2
22/01:00pm 26.2 26.3 21.8 77 2.9 SE 24 28 13 15 1009.0 1008.9 0.2
22/12:45pm 27.1 28.5 23.6 81 2.4 SE 22 30 12 16 1009.1 1009.1 0.2
22/12:30pm 26.4 27.1 22.3 78 2.8 SSE 22 28 12 15 1009.2 1009.2 0.2
22/12:28pm 26.7 27.7 22.1 76 3.1 SSE 20 28 11 15 1009.2 1009.2 0.2
22/12:00pm 26.0 27.0 22.1 79 2.6 SE 20 22 11 12 1009.7 1009.7 0.2
22/11:30am 26.9 29.1 23.2 80 2.5 SSE 17 24 9 13 1009.9 1009.9 0.2
22/11:00am 25.5 26.5 21.0 76 3.0 SSE 17 22 9 12 1010.1 1010.1 0.2
22/10:30am 25.8 27.8 20.8 74 3.3 SSE 11 19 6 10 1010.2 1010.2 0.2
22/10:00am 25.0 27.1 20.9 78 2.7 S 11 15 6 8 1010.4 1010.4 0.2
22/09:30am 24.5 27.1 22.0 86 1.7 SSE 11 15 6 8 1010.7 1010.7 0.0
22/09:00am 23.7 26.4 21.4 87 1.5 S 9 13 5 7 1010.8 1010.8 12.2
22/08:30am 23.1 26.8 21.5 91 1.1 SW 4 7 2 4 1010.5 1010.5 12.2
22/08:00am 22.6 25.9 21.4 93 0.8 W 6 9 3 5 1010.3 1010.3 12.2
22/07:30am 22.2 25.3 21.4 95 0.5 W 7 11 4 6 1010.3 1010.3 12.2
22/07:00am 21.8 24.3 21.1 96 0.5 WSW 9 13 5 7 1010.2 1010.2 12.2
22/06:30am 21.3 23.3 20.8 97 0.3 W 11 17 6 9 1009.8 1009.8 12.2
22/06:00am 21.0 22.6 20.7 98 0.2 NW 13 17 7 9 1009.3 1009.3 12.2
22/05:30am 20.9 22.5 20.7 99 0.1 WSW 13 17 7 9 1009.6 1009.6 12.2
22/05:20am 20.9 22.5 20.7 99 0.1 SW 13 17 7 9 1009.4 1009.4 12.2
22/05:00am 20.8 22.7 20.6 99 0.1 SW 11 15 6 8 1009.2 1009.2 12.0
22/04:41am 20.8 23.0 20.5 98 0.2 SW 9 13 5 7 1009.0 1008.9 12.0
22/04:33am 20.8 22.7 20.6 99 0.1 WSW 11 13 6 7 1009.1 1009.1 12.0
22/04:30am 20.7 22.6 20.5 99 0.1 WSW 11 13 6 7 1009.1 1009.1 12.0
22/04:00am 20.7 24.7 20.5 99 0.1 CALM 0 0 0 0 1008.4 1008.3 12.0
22/03:52am 20.7 24.3 20.5 99 0.1 SSW 2 9 1 5 1008.6 1008.5 12.0
22/03:30am 20.6 23.3 20.3 98 0.2 WNW 6 11 3 6 1008.0 1007.9 12.0
22/03:00am 20.7 23.3 20.4 98 0.2 NNW 7 9 4 5 1008.2 1008.1 11.8
22/02:30am 20.8 22.7 20.5 98 0.2 NNW 11 15 6 8 1009.1 1009.1 11.6
22/02:19am 20.8 23.0 20.5 98 0.2 NNW 9 11 5 6 1009.4 1009.4 11.4
22/02:08am 20.9 23.1 20.4 97 0.3 WNW 9 11 5 6 1009.8 1009.8 11.2
22/02:00am 21.0 23.2 20.5 97 0.3 WNW 9 11 5 6 1010.1 1010.1 11.0
22/01:30am 21.1 23.3 20.4 96 0.5 SSW 9 11 5 6 1010.3 1010.3 10.8
22/01:00am 21.0 21.3 20.5 97 0.3 S 19 24 10 13 1010.2 1010.2 10.4
22/12:30am 21.1 22.3 20.6 97 0.3 SW 15 19 8 10 1010.7 1010.7 9.6
22/12:04am 21.3 22.9 20.8 97 0.3 SSW 13 17 7 9 1011.2 1011.2 8.8
22/12:00am 21.4 23.5 20.9 97 0.3 SSW 11 17 6 9 1011.1 1011.1 8.8
 
Date/Time
EST
Temp
°C
App
Temp
°C
Dew
Point
°C
Rel
Hum
%
Delta-T
°C
Wind Press
QNH
hPa
Press
MSL
hPa
Rain since
9am
mm
Dir  Spd
km/h
Gust
km/h
Spd
kts
Gust
kts
21/11:54pm 21.5 24.0 21.0 97 0.3 SW 9 13 5 7 1011.2 1011.2 8.8
21/11:30pm 21.6 23.3 20.9 96 0.5 SW 13 17 7 9 1011.3 1011.3 7.6
21/11:00pm 21.9 23.6 20.9 94 0.7 SSE 13 15 7 8 1011.3 1011.3 5.0
21/10:30pm 22.4 23.8 21.0 92 0.9 SE 15 24 8 13 1011.2 1011.2 2.6
21/10:00pm 23.2 23.7 20.9 87 1.5 ESE 19 28 10 15 1010.6 1010.6 0.4
21/09:30pm 23.4 23.5 21.1 87 1.5 ESE 22 28 12 15 1010.2 1010.2 0.4
21/09:00pm 23.6 25.1 21.3 87 1.5 ESE 15 28 8 15 1010.3 1010.3 0.4
21/08:30pm 23.8 25.6 21.1 85 1.8 ESE 13 19 7 10 1010.5 1010.5 0.4
21/08:17pm 23.9 25.2 20.8 83 2.0 ESE 15 22 8 12 1010.4 1010.4 0.4
21/08:00pm 24.1 24.8 21.2 84 1.9 ESE 19 26 10 14 1010.5 1010.5 0.4
21/07:50pm 24.1 24.9 21.4 85 1.8 ESE 19 26 10 14 1010.2 1010.2 0.4
21/07:30pm 23.9 25.1 21.4 86 1.6 ESE 17 24 9 13 1010.1 1010.1 0.4
21/07:00pm 23.8 24.4 21.3 86 1.6 ESE 20 30 11 16 1009.8 1009.8 0.4
21/06:30pm 24.5 25.8 20.8 80 2.4 ESE 15 20 8 11 1009.3 1009.3 0.4
21/06:00pm 24.7 25.5 20.6 78 2.7 E 17 24 9 13 1009.1 1009.1 0.4
21/05:30pm 24.9 25.6 20.4 76 2.9 E 17 22 9 12 1008.8 1008.7 0.4
21/05:00pm 25.2 26.0 21.3 79 2.6 ENE 19 28 10 15 1008.8 1008.7 0.4
21/04:35pm 24.8 25.4 21.1 80 2.4 E 19 24 10 13 1008.8 1008.7 0.4
21/04:30pm 24.9 26.0 21.2 80 2.4 E 17 26 9 14 1008.9 1008.8 0.4
21/04:25pm 24.9 26.0 21.2 80 2.4 E 17 26 9 14 1009.0 1008.9 0.4
21/04:24pm 24.8 25.4 21.1 80 2.4 E 19 26 10 14 1009.0 1008.9 0.4
21/04:04pm 24.9 26.1 21.4 81 2.3 E 17 24 9 13 1009.0 1008.9 0.4
21/04:00pm 24.9 25.9 21.0 79 2.6 E 17 24 9 13 1009.1 1009.1 0.4
21/03:30pm 25.4 26.0 21.3 78 2.7 E 20 26 11 14 1009.4 1009.4 0.4
21/03:07pm 25.7 26.7 21.8 79 2.6 E 19 26 10 14 1009.6 1009.6 0.4
21/03:00pm 26.0 26.8 21.7 77 2.9 E 20 28 11 15 1009.7 1009.7 0.4
21/02:53pm 26.5 27.4 21.9 76 3.1 ESE 20 30 11 16 1009.7 1009.7 0.4
21/02:30pm 26.2 26.9 22.3 79 2.6 ESE 22 28 12 15 1009.8 1009.8 0.4
21/02:00pm 26.7 27.7 21.0 71 3.8 ENE 17 22 9 12 1010.3 1010.3 0.4
21/01:30pm 28.3 28.9 20.3 62 5.3 E 17 22 9 12 1010.2 1010.2 0.4
21/01:00pm 28.0 30.3 21.3 67 4.5 SE 11 15 6 8 1010.9 1010.9 0.4
21/12:30pm 26.9 28.8 19.8 65 4.6 SE 9 13 5 7 1011.3 1011.3 0.4
21/12:00pm 27.1 30.2 21.4 71 3.8 SSE 7 13 4 7 1011.8 1011.8 0.4
21/11:30am 26.1 28.5 20.9 73 3.4 SE 9 11 5 6 1012.2 1012.2 0.4
21/11:00am 25.8 29.5 21.5 77 2.9 S 4 11 2 6 1012.2 1012.2 0.2
21/10:50am 25.6 28.8 21.7 79 2.6 S 7 11 4 6 1012.4 1012.4 0.2
21/10:38am 25.4 28.6 21.3 78 2.7 SSW 6 9 3 5 1012.4 1012.4 0.2
21/10:30am 25.0 28.5 21.9 83 2.1 SSW 6 11 3 6 1012.4 1012.4 0.2
21/10:00am 23.2 26.1 21.8 92 0.9 SSE 9 13 5 7 1012.6 1012.6 0.2
21/09:47am 23.2 25.7 22.5 96 0.5 SSE 13 15 7 8 1012.7 1012.7 0.2
21/09:30am 22.8 23.7 21.6 93 0.8 ESE 19 22 10 12 1012.7 1012.7 0.2
21/09:00am 25.0 28.6 22.1 84 1.9 S 6 9 3 5 1012.7 1012.7 26.0
21/08:30am 23.9 27.0 22.2 90 1.1 SE 9 13 5 7 1012.6 1012.6 26.0
21/08:00am 23.5 26.8 22.5 94 0.7 SSW 9 11 5 6 1012.7 1012.7 26.0
21/07:30am 22.1 25.4 21.8 98 0.2 S 7 9 4 5 1012.5 1012.5 26.0
21/07:03am 22.0 25.8 21.7 98 0.2 SSE 4 9 2 5 1012.4 1012.4 26.0
21/07:00am 21.9 26.0 21.6 98 0.2 SSE 2 7 1 4 1012.4 1012.4 26.0
21/06:45am 21.6 26.0 21.3 98 0.2 CALM 0 0 0 0 1012.0 1012.0 26.0
21/06:30am 21.5 25.1 21.3 99 0.1 ESE 4 7 2 4 1011.9 1011.9 25.2
21/06:00am 21.5 24.5 21.3 99 0.1 NNE 7 13 4 7 1011.8 1011.8 25.0
21/05:49am 21.6 24.7 21.4 99 0.1 NE 7 11 4 6 1011.6 1011.6 25.0
21/05:40am 21.3 24.2 21.1 99 0.1 ENE 7 13 4 7 1011.3 1011.3 25.0
21/05:30am 21.3 23.5 21.1 99 0.1 E 11 19 6 10 1011.2 1011.2 24.6
21/05:15am 21.2 22.1 20.9 98 0.2 E 17 22 9 12 1011.1 1011.1 21.4
21/05:00am 21.4 22.8 21.1 98 0.2 ESE 15 24 8 13 1011.2 1011.2 12.8

Other Formats:

Comma delimited format used in spreadsheet applications
http://www.bom.gov.au/fwo/IDQ60801/IDQ60801.94280.axf

JavaScript Object Notation format (JSON) in row-major order
http://www.bom.gov.au/fwo/IDQ60801/IDQ60801.94280.json